Time;durP1;ratioP1;P1;durP2;ratioP2;P2;SDS_P1;SDS_P2;PMS_P1;PMS_P2;Temp;Humidity;BMP_temperature;BMP_pressure;BME280_temperature;BME280_humidity;BME280_pressure;Samples;Min_cycle;Max_cycle;Signal;HPM_P1;HPM_P2
2021/06/05 00:01:42;;;;;;;7.65;2.03;;;18.30;99.90;;;;;;4993073;28;20033;-71
2021/06/05 00:04:08;;;;;;;4.63;1.60;;;18.30;99.90;;;;;;4993702;28;20018;-71
2021/06/05 00:06:34;;;;;;;3.45;1.48;;;18.30;99.90;;;;;;4999532;28;20026;-71
2021/06/05 00:08:59;;;;;;;14.30;2.15;;;18.10;99.90;;;;;;4994147;28;20077;-71
2021/06/05 00:11:29;;;;;;;1.40;1.05;;;18.10;99.90;;;;;;4992740;28;20026;-72
2021/06/05 00:13:59;;;;;;;4.35;1.27;;;17.90;99.90;;;;;;4993785;28;20088;-71
2021/06/05 00:16:39;;;;;;;3.92;1.50;;;17.90;99.90;;;;;;4993397;28;20026;-70
2021/06/05 00:19:05;;;;;;;5.00;1.50;;;17.80;99.90;;;;;;4994305;28;20134;-70
2021/06/05 00:21:32;;;;;;;1.35;0.90;;;17.80;99.90;;;;;;5013579;28;20041;-71
2021/06/05 00:23:58;;;;;;;3.80;1.52;;;17.80;99.90;;;;;;5015810;28;20015;-74
2021/06/05 00:26:24;;;;;;;1.27;1.17;;;17.70;99.90;;;;;;4994389;28;20112;-71
2021/06/05 00:28:50;;;;;;;2.58;1.25;;;17.70;99.90;;;;;;4993671;28;20026;-71
2021/06/05 00:31:16;;;;;;;1.10;1.00;;;17.70;99.90;;;;;;4992373;28;20069;-71
2021/06/05 00:33:42;;;;;;;3.60;1.40;;;17.70;99.90;;;;;;4992937;28;20026;-71
2021/06/05 00:36:14;;;;;;;2.78;1.55;;;17.60;99.90;;;;;;4993031;28;20038;-72
2021/06/05 00:38:40;;;;;;;3.70;1.23;;;17.50;99.90;;;;;;4992910;28;20385;-71
2021/06/05 00:41:09;;;;;;;3.25;1.25;;;17.50;99.90;;;;;;4992044;28;20097;-71
2021/06/05 00:43:46;;;;;;;1.20;1.10;;;17.60;99.90;;;;;;4992697;28;20084;-71
2021/06/05 00:46:15;;;;;;;1.15;0.93;;;17.70;99.90;;;;;;4992767;28;20046;-74
2021/06/05 00:48:41;;;;;;;2.42;1.08;;;17.60;99.90;;;;;;4992518;28;20040;-73
2021/06/05 00:51:07;;;;;;;2.85;0.93;;;17.60;99.90;;;;;;4991930;28;20054;-71
2021/06/05 00:53:34;;;;;;;3.22;1.10;;;17.60;99.90;;;;;;4991831;28;20064;-74
2021/06/05 00:56:01;;;;;;;2.33;1.20;;;17.60;99.90;;;;;;4992510;28;20560;-73
2021/06/05 00:58:29;;;;;;;1.08;1.00;;;17.70;99.90;;;;;;4974840;28;20041;-73
2021/06/05 01:01:03;;;;;;;1.27;0.90;;;17.70;99.90;;;;;;4991729;28;20113;-73
2021/06/05 01:03:30;;;;;;;2.60;1.30;;;17.70;99.90;;;;;;4974655;28;20500;-73
2021/06/05 01:06:00;;;;;;;2.92;1.00;;;17.70;99.90;;;;;;4991776;28;20062;-73
2021/06/05 01:08:50;;;;;;;1.00;0.90;;;17.70;99.90;;;;;;4992468;28;20068;-73
2021/06/05 01:11:27;;;;;;;2.08;1.08;;;17.80;99.90;;;;;;4991872;28;20015;-73
2021/06/05 01:14:01;;;;;;;4.45;1.00;;;17.70;99.90;;;;;;4992243;28;20030;-73
2021/06/05 01:16:28;;;;;;;2.45;0.90;;;17.70;99.90;;;;;;4978544;28;20134;-72
2021/06/05 01:18:58;;;;;;;0.77;0.75;;;17.70;99.90;;;;;;4999230;28;20057;-73
2021/06/05 01:21:44;;;;;;;3.20;1.10;;;17.80;99.90;;;;;;5000119;28;20128;-73
2021/06/05 01:24:12;;;;;;;1.65;0.80;;;17.80;99.90;;;;;;4999018;28;20038;-72
2021/06/05 01:26:42;;;;;;;1.05;0.98;;;17.80;99.90;;;;;;4994900;28;20030;-73
2021/06/05 01:29:18;;;;;;;3.55;1.05;;;17.80;99.90;;;;;;4992642;28;20053;-74
2021/06/05 01:31:51;;;;;;;1.50;0.95;;;17.80;99.90;;;;;;4991282;28;20053;-74
2021/06/05 01:34:17;;;;;;;1.60;0.98;;;17.80;99.90;;;;;;4992311;28;20031;-73
2021/06/05 01:36:50;;;;;;;1.55;0.88;;;17.80;99.90;;;;;;4991963;28;20022;-72
2021/06/05 01:39:22;;;;;;;0.68;0.68;;;17.80;99.90;;;;;;4991903;28;20038;-72
2021/06/05 01:41:50;;;;;;;2.22;1.05;;;17.80;99.90;;;;;;5026536;23;20053;-74
2021/06/05 01:44:19;;;;;;;1.67;0.90;;;17.80;99.90;;;;;;4992137;28;20061;-75
2021/06/05 01:46:47;;;;;;;2.35;1.10;;;17.70;99.90;;;;;;4975826;28;20036;-75
2021/06/05 01:49:13;;;;;;;4.70;1.15;;;17.70;99.90;;;;;;4991956;28;20022;-74
2021/06/05 01:51:42;;;;;;;3.13;1.05;;;17.80;99.90;;;;;;4978886;28;20436;-74
2021/06/05 01:54:17;;;;;;;1.35;1.10;;;17.70;99.90;;;;;;4954274;28;20085;-74
2021/06/05 01:56:51;;;;;;;1.35;0.77;;;17.70;99.90;;;;;;4972633;28;20058;-75
2021/06/05 01:59:17;;;;;;;2.35;0.90;;;17.60;99.90;;;;;;4972954;28;20027;-75
2021/06/05 02:01:44;;;;;;;1.73;0.93;;;17.70;99.90;;;;;;4971669;28;20122;-74
2021/06/05 02:04:11;;;;;;;1.13;1.02;;;17.70;99.90;;;;;;4972459;28;20034;-75
2021/06/05 02:06:38;;;;;;;2.45;1.08;;;17.70;99.90;;;;;;4955108;28;20027;-75
2021/06/05 02:09:07;;;;;;;1.42;0.90;;;17.60;99.90;;;;;;4972409;28;20029;-74
2021/06/05 02:11:39;;;;;;;1.85;1.00;;;17.70;99.90;;;;;;4971723;28;20027;-74
2021/06/05 02:14:13;;;;;;;2.53;1.30;;;17.70;99.90;;;;;;4972455;28;20444;-75
2021/06/05 02:16:43;;;;;;;1.58;1.27;;;17.70;99.90;;;;;;4953035;29;20036;-74
2021/06/05 02:19:26;;;;;;;1.95;1.00;;;17.60;99.90;;;;;;4953208;29;20409;-74
2021/06/05 02:21:54;;;;;;;1.27;1.00;;;17.50;99.90;;;;;;4952934;28;20038;-74
2021/06/05 02:24:24;;;;;;;3.25;1.20;;;17.40;99.90;;;;;;4953192;29;20027;-74
2021/06/05 02:26:51;;;;;;;1.23;1.13;;;17.30;99.90;;;;;;4952916;29;20386;-74
2021/06/05 02:29:23;;;;;;;2.65;1.30;;;17.30;99.90;;;;;;4953217;29;20027;-74
2021/06/05 02:31:49;;;;;;;4.50;1.20;;;17.20;99.90;;;;;;4953225;28;20101;-77
2021/06/05 02:34:22;;;;;;;2.38;1.05;;;17.00;99.90;;;;;;4953179;29;20039;-76
2021/06/05 02:36:50;;;;;;;2.17;1.40;;;16.90;99.90;;;;;;4953006;29;20038;-75
2021/06/05 02:39:18;;;;;;;1.17;0.98;;;16.90;99.90;;;;;;4948545;28;20039;-74
2021/06/05 02:41:46;;;;;;;2.20;1.40;;;17.00;99.90;;;;;;4971404;28;20114;-73
2021/06/05 02:44:15;;;;;;;2.75;1.38;;;17.00;99.90;;;;;;4974540;28;20027;-74
2021/06/05 02:46:42;;;;;;;1.45;1.30;;;17.00;99.90;;;;;;4975598;28;20128;-74
2021/06/05 02:49:31;;;;;;;7.57;1.38;;;17.00;99.90;;;;;;4976312;28;20102;-74
2021/06/05 02:52:10;;;;;;;3.08;1.15;;;17.20;99.90;;;;;;4975566;28;20030;-74
2021/06/05 02:54:36;;;;;;;2.72;1.63;;;17.20;99.90;;;;;;4974870;28;20014;-73
2021/06/05 02:57:06;;;;;;;2.08;1.30;;;17.20;99.90;;;;;;4975391;28;20393;-73
2021/06/05 02:59:31;;;;;;;2.60;1.40;;;17.30;99.90;;;;;;4956284;28;20027;-74
2021/06/05 03:01:57;;;;;;;2.92;1.15;;;17.30;99.90;;;;;;4975104;28;20043;-74
2021/06/05 03:04:24;;;;;;;1.35;1.25;;;17.40;99.90;;;;;;4974781;28;20026;-74
2021/06/05 03:06:50;;;;;;;1.60;1.45;;;17.40;99.90;;;;;;4975271;28;20027;-74
2021/06/05 03:09:16;;;;;;;1.70;1.17;;;17.30;99.90;;;;;;4975110;28;20030;-74
2021/06/05 03:11:46;;;;;;;2.95;1.30;;;17.10;99.90;;;;;;4972553;28;20027;-74
2021/06/05 03:14:13;;;;;;;2.05;1.27;;;17.00;99.90;;;;;;4975400;28;20027;-74
2021/06/05 03:16:38;;;;;;;4.40;1.50;;;17.00;99.90;;;;;;4974691;28;20027;-75
2021/06/05 03:19:04;;;;;;;2.72;1.20;;;16.80;99.90;;;;;;4975041;28;20031;-74
2021/06/05 03:21:31;;;;;;;2.20;1.38;;;16.70;99.90;;;;;;4974651;28;20106;-74
2021/06/05 03:23:57;;;;;;;4.20;1.25;;;16.70;99.90;;;;;;4975196;28;20472;-74
2021/06/05 03:26:22;;;;;;;2.13;1.42;;;16.80;99.90;;;;;;4975183;28;20027;-74
2021/06/05 03:28:49;;;;;;;1.20;1.10;;;16.80;99.90;;;;;;4974978;28;20034;-75
2021/06/05 03:31:21;;;;;;;1.63;1.35;;;16.80;99.90;;;;;;4973737;28;20031;-75
2021/06/05 03:33:48;;;;;;;2.75;1.60;;;16.90;99.90;;;;;;4957655;28;20121;-75
2021/06/05 03:36:14;;;;;;;3.90;1.83;;;16.70;99.90;;;;;;4974939;28;20392;-75
2021/06/05 03:38:41;;;;;;;3.03;1.50;;;16.80;99.90;;;;;;4974897;28;20031;-75
2021/06/05 03:41:08;;;;;;;2.83;1.60;;;16.80;99.90;;;;;;4956487;28;20137;-74
2021/06/05 03:43:34;;;;;;;3.08;1.23;;;16.80;99.90;;;;;;4974802;28;20034;-74
2021/06/05 03:45:59;;;;;;;2.40;1.67;;;16.80;99.90;;;;;;4974264;28;20027;-74
2021/06/05 03:48:25;;;;;;;2.83;1.60;;;16.80;99.90;;;;;;4974667;28;20023;-75
2021/06/05 03:50:53;;;;;;;2.95;1.30;;;16.70;99.90;;;;;;4973673;28;20033;-74
2021/06/05 03:53:20;;;;;;;2.40;1.38;;;16.70;99.90;;;;;;4974526;28;20836;-74
2021/06/05 03:55:46;;;;;;;2.38;1.40;;;16.70;99.90;;;;;;4956423;28;20035;-74
2021/06/05 03:58:13;;;;;;;1.23;1.15;;;16.70;99.90;;;;;;4974526;28;20025;-75
2021/06/05 04:00:42;;;;;;;2.42;1.55;;;16.70;99.90;;;;;;4973364;28;20058;-75
2021/06/05 04:03:08;;;;;;;4.07;1.50;;;16.80;99.90;;;;;;4974210;28;20111;-75
2021/06/05 04:05:35;;;;;;;2.60;1.63;;;16.80;99.90;;;;;;4974286;28;20051;-75
2021/06/05 04:08:01;;;;;;;3.90;1.75;;;16.90;99.90;;;;;;4972669;28;20076;-75
2021/06/05 04:10:27;;;;;;;2.20;1.60;;;16.90;99.90;;;;;;4965864;28;20034;-73
2021/06/05 04:12:54;;;;;;;3.67;1.63;;;17.00;99.90;;;;;;4973452;28;20093;-73
2021/06/05 04:15:24;;;;;;;2.40;1.52;;;17.10;99.90;;;;;;4973546;28;20699;-73
2021/06/05 04:18:03;;;;;;;1.55;1.42;;;17.10;99.90;;;;;;4974266;28;20035;-74
2021/06/05 04:20:29;;;;;;;3.25;1.85;;;17.20;99.90;;;;;;4955237;28;20130;-74
2021/06/05 04:22:55;;;;;;;1.75;1.42;;;17.30;99.90;;;;;;4973783;28;20054;-74
2021/06/05 04:25:21;;;;;;;1.92;1.65;;;17.30;99.90;;;;;;4973630;28;20441;-74
2021/06/05 04:27:48;;;;;;;5.57;1.90;;;17.30;99.90;;;;;;4973546;28;20035;-73
2021/06/05 04:30:16;;;;;;;3.50;1.50;;;17.40;99.90;;;;;;4973697;28;20018;-74
2021/06/05 04:32:43;;;;;;;1.52;1.42;;;17.40;99.90;;;;;;4957246;28;20105;-73
2021/06/05 04:35:09;;;;;;;2.83;1.30;;;17.40;99.90;;;;;;4973378;28;20029;-73
2021/06/05 04:37:34;;;;;;;1.33;1.10;;;17.40;99.90;;;;;;4973562;28;20040;-73
2021/06/05 04:40:00;;;;;;;1.33;1.17;;;17.50;99.90;;;;;;4987084;28;20425;-74
2021/06/05 04:42:26;;;;;;;2.15;1.17;;;17.50;99.90;;;;;;4972982;28;20413;-73
2021/06/05 04:44:51;;;;;;;1.65;1.40;;;17.50;99.90;;;;;;4973578;28;20027;-74
2021/06/05 04:47:17;;;;;;;2.63;1.30;;;17.50;99.90;;;;;;4973009;28;20031;-73
2021/06/05 04:49:42;;;;;;;6.40;1.48;;;17.50;99.90;;;;;;4972600;28;20105;-73
2021/06/05 04:52:08;;;;;;;2.42;1.00;;;17.50;99.90;;;;;;4972291;28;20097;-74
2021/06/05 04:54:34;;;;;;;2.45;1.10;;;17.60;99.90;;;;;;4973298;28;20093;-73
2021/06/05 04:57:00;;;;;;;1.35;1.20;;;17.70;99.90;;;;;;4973039;28;20030;-73
2021/06/05 04:59:26;;;;;;;1.52;1.15;;;17.80;99.90;;;;;;4972363;28;20429;-73
2021/06/05 05:01:51;;;;;;;2.72;1.00;;;17.90;99.90;;;;;;4971745;28;20023;-73
2021/06/05 05:04:18;;;;;;;3.08;1.15;;;17.90;99.90;;;;;;4972954;28;20026;-73
2021/06/05 05:06:44;;;;;;;3.30;1.27;;;17.90;99.90;;;;;;4954816;28;20054;-73
2021/06/05 05:09:12;;;;;;;2.35;1.38;;;17.80;99.90;;;;;;4972988;28;20098;-74
2021/06/05 05:11:37;;;;;;;1.08;1.08;;;17.90;99.90;;;;;;4971509;28;20098;-74
2021/06/05 05:14:04;;;;;;;2.78;1.30;;;17.90;99.90;;;;;;4972606;28;20035;-74
2021/06/05 05:16:30;;;;;;;1.23;1.13;;;18.00;99.90;;;;;;4972743;28;20115;-73
2021/06/05 05:18:56;;;;;;;1.85;1.33;;;17.90;99.90;;;;;;4955713;28;20026;-73
2021/06/05 05:21:23;;;;;;;2.25;1.15;;;18.00;99.90;;;;;;4971776;28;20784;-75
2021/06/05 05:23:49;;;;;;;1.70;1.10;;;17.90;99.90;;;;;;4972230;28;20026;-75
2021/06/05 05:26:17;;;;;;;1.42;1.33;;;18.00;99.90;;;;;;4972738;28;20432;-73
2021/06/05 05:28:42;;;;;;;3.00;1.17;;;17.90;99.90;;;;;;4955388;28;20022;-73
2021/06/05 05:31:13;;;;;;;3.42;1.45;;;18.00;99.90;;;;;;4971606;28;20031;-73
2021/06/05 05:33:39;;;;;;;1.55;0.98;;;18.20;99.90;;;;;;4972288;28;20046;-72
2021/06/05 05:36:13;;;;;;;1.13;0.93;;;18.30;99.90;;;;;;4972480;28;20049;-73
2021/06/05 05:38:39;;;;;;;4.75;1.00;;;18.50;99.90;;;;;;4972690;28;20383;-72
2021/06/05 05:41:06;;;;;;;2.42;1.00;;;18.50;99.90;;;;;;4971470;28;20432;-73
2021/06/05 05:43:32;;;;;;;1.90;1.08;;;18.60;99.90;;;;;;4971949;28;20046;-73
2021/06/05 05:45:58;;;;;;;3.17;1.00;;;18.50;99.90;;;;;;4971646;28;20054;-73
2021/06/05 05:48:24;;;;;;;3.10;0.98;;;18.50;99.90;;;;;;4972296;28;20031;-73
2021/06/05 05:50:50;;;;;;;1.10;1.00;;;18.60;99.90;;;;;;4971262;28;20038;-74
2021/06/05 05:53:16;;;;;;;1.20;1.10;;;18.70;99.90;;;;;;4953869;28;20118;-72
2021/06/05 05:55:42;;;;;;;3.33;1.15;;;18.90;99.90;;;;;;4972228;28;20106;-72
2021/06/05 05:58:14;;;;;;;2.85;1.25;;;19.00;99.90;;;;;;4955133;28;20133;-74
2021/06/05 06:00:41;;;;;;;1.23;1.13;;;18.90;99.90;;;;;;4953508;28;20035;-74
2021/06/05 06:03:08;;;;;;;2.92;1.17;;;18.90;99.90;;;;;;4972056;28;20035;-74
2021/06/05 06:05:35;;;;;;;2.28;1.00;;;18.80;99.90;;;;;;4971302;28;20023;-74
2021/06/05 06:08:00;;;;;;;1.58;1.00;;;18.90;99.90;;;;;;4972177;28;20105;-74
2021/06/05 06:10:27;;;;;;;2.03;1.23;;;18.90;99.90;;;;;;4954118;28;20552;-74
2021/06/05 06:12:53;;;;;;;2.05;1.00;;;18.80;99.90;;;;;;4972207;28;20027;-74
2021/06/05 06:15:23;;;;;;;2.08;1.20;;;18.60;99.90;;;;;;4971732;28;20037;-73
2021/06/05 06:17:50;;;;;;;2.25;0.90;;;18.60;99.90;;;;;;4972480;28;20056;-74
2021/06/05 06:20:28;;;;;;;2.10;1.00;;;18.70;99.90;;;;;;4974849;28;20094;-73
2021/06/05 06:22:55;;;;;;;1.20;1.10;;;18.80;99.90;;;;;;4958717;28;20026;-74
2021/06/05 06:25:23;;;;;;;2.15;1.10;;;18.80;99.90;;;;;;4975604;28;20102;-73
2021/06/05 06:27:50;;;;;;;2.72;1.20;;;18.90;99.90;;;;;;4975546;28;20027;-74
2021/06/05 06:30:21;;;;;;;1.85;1.08;;;18.90;99.90;;;;;;4974902;28;20042;-74
2021/06/05 06:32:51;;;;;;;2.03;0.98;;;18.90;99.90;;;;;;4975361;28;20039;-74
2021/06/05 06:35:22;;;;;;;7.53;1.23;;;19.00;99.90;;;;;;4945957;29;20062;-74
2021/06/05 06:37:49;;;;;;;2.83;1.25;;;19.00;99.90;;;;;;4961189;28;20030;-74
2021/06/05 06:40:16;;;;;;;1.65;1.00;;;19.10;99.90;;;;;;4974706;28;20027;-73
2021/06/05 06:42:41;;;;;;;4.93;1.17;;;19.00;99.90;;;;;;4979519;28;20066;-74
2021/06/05 06:45:08;;;;;;;1.42;1.08;;;18.90;99.90;;;;;;4978983;28;20525;-74
2021/06/05 06:47:34;;;;;;;1.25;1.10;;;18.80;99.90;;;;;;4958400;28;20023;-74
2021/06/05 06:50:00;;;;;;;2.47;1.38;;;18.70;99.90;;;;;;4974858;28;20410;-73
2021/06/05 06:52:26;;;;;;;1.92;1.05;;;18.60;99.90;;;;;;4957537;28;20113;-74
2021/06/05 06:54:55;;;;;;;2.85;1.00;;;18.50;99.90;;;;;;4975036;28;20081;-73
2021/06/05 06:57:22;;;;;;;4.80;1.38;;;18.40;99.90;;;;;;4975234;28;20031;-73
2021/06/05 06:59:47;;;;;;;2.00;1.20;;;18.50;99.90;;;;;;4974314;28;20031;-74
2021/06/05 07:02:13;;;;;;;2.40;1.30;;;18.60;99.90;;;;;;4957413;28;20111;-74
2021/06/05 07:04:39;;;;;;;2.15;1.40;;;18.60;99.90;;;;;;4973849;28;20429;-73
2021/06/05 07:07:05;;;;;;;2.92;1.40;;;18.50;99.90;;;;;;4972228;28;20034;-74
2021/06/05 07:09:32;;;;;;;1.88;1.02;;;18.40;99.90;;;;;;4969989;28;20106;-74
2021/06/05 07:11:59;;;;;;;1.83;1.10;;;18.40;99.90;;;;;;4955977;28;20031;-74
2021/06/05 07:14:24;;;;;;;2.35;1.00;;;18.40;99.90;;;;;;4969817;28;20110;-73
2021/06/05 07:16:50;;;;;;;3.38;0.93;;;18.40;99.90;;;;;;4974560;28;20149;-73
2021/06/05 07:19:16;;;;;;;1.48;1.20;;;18.40;99.90;;;;;;4975001;28;20085;-73
2021/06/05 07:21:42;;;;;;;3.65;1.30;;;18.10;99.90;;;;;;4956492;28;20441;-73
2021/06/05 07:24:08;;;;;;;2.33;1.52;;;18.00;99.90;;;;;;4974847;28;20501;-73
2021/06/05 07:26:34;;;;;;;3.15;1.25;;;18.10;99.90;;;;;;4974485;28;20054;-73
2021/06/05 07:29:04;;;;;;;4.35;1.58;;;17.90;99.90;;;;;;4957309;28;20027;-73
2021/06/05 07:31:34;;;;;;;1.70;1.60;;;18.00;99.90;;;;;;4972859;28;20035;-73
2021/06/05 07:34:00;;;;;;;7.68;1.75;;;18.20;99.90;;;;;;4974776;28;20023;-73
2021/06/05 07:36:42;;;;;;;3.28;1.58;;;18.40;99.90;;;;;;4974627;28;20397;-74
2021/06/05 07:39:12;;;;;;;2.72;1.35;;;18.70;99.90;;;;;;4975691;28;20122;-74
2021/06/05 07:41:37;;;;;;;4.78;1.38;;;18.70;99.90;;;;;;4973874;28;20034;-73
2021/06/05 07:44:04;;;;;;;2.35;1.20;;;18.80;99.90;;;;;;4956962;28;20481;-74
2021/06/05 07:46:30;;;;;;;3.22;1.45;;;18.90;99.90;;;;;;4974043;28;20027;-73
2021/06/05 07:48:55;;;;;;;5.07;1.23;;;18.90;99.90;;;;;;4957196;28;20366;-73
2021/06/05 07:51:22;;;;;;;5.53;1.45;;;19.20;99.90;;;;;;4975783;28;20062;-75
2021/06/05 07:53:48;;;;;;;3.20;1.33;;;19.30;99.90;;;;;;4958635;28;20041;-72
2021/06/05 07:56:15;;;;;;;3.42;1.27;;;19.40;99.90;;;;;;4974507;28;20452;-72
2021/06/05 07:58:41;;;;;;;3.10;1.10;;;19.50;99.90;;;;;;4956616;28;20129;-71
2021/06/05 08:01:07;;;;;;;1.55;1.20;;;19.70;99.90;;;;;;4955228;29;20055;-71
2021/06/05 08:03:33;;;;;;;2.28;1.38;;;19.90;99.90;;;;;;4960114;28;20019;-70
2021/06/05 08:05:58;;;;;;;1.65;1.40;;;19.90;99.90;;;;;;4974073;28;20027;-73
2021/06/05 08:08:24;;;;;;;5.53;1.17;;;20.20;99.90;;;;;;4973226;28;20524;-71
2021/06/05 08:10:51;;;;;;;1.10;1.02;;;20.00;99.90;;;;;;4974221;28;20113;-72
2021/06/05 08:13:16;;;;;;;2.60;1.15;;;19.70;99.90;;;;;;4974529;28;20031;-71
2021/06/05 08:15:45;;;;;;;4.90;1.20;;;19.70;99.90;;;;;;4974409;28;20038;-70
2021/06/05 08:18:13;;;;;;;1.13;1.10;;;19.80;99.90;;;;;;4974343;28;20026;-71
2021/06/05 08:20:45;;;;;;;1.80;1.42;;;19.70;99.90;;;;;;4973735;28;20101;-72
2021/06/05 08:23:12;;;;;;;6.30;1.30;;;20.20;99.90;;;;;;4974676;28;20101;-71
2021/06/05 08:25:37;;;;;;;3.70;1.30;;;20.60;99.90;;;;;;4976299;28;20093;-72
2021/06/05 08:28:04;;;;;;;2.13;1.02;;;20.80;99.90;;;;;;4996762;28;20031;-75
2021/06/05 08:30:44;;;;;;;4.05;1.30;;;21.10;99.90;;;;;;4995133;28;20045;-71
2021/06/05 08:33:11;;;;;;;6.07;1.25;;;21.40;99.90;;;;;;4975945;28;20034;-72
2021/06/05 08:35:37;;;;;;;2.88;1.33;;;21.70;99.90;;;;;;4957988;28;20031;-73
2021/06/05 08:38:04;;;;;;;3.45;1.10;;;21.70;99.90;;;;;;4956711;28;20025;-72
2021/06/05 08:41:05;;;;;;;3.92;1.25;;;21.80;99.90;;;;;;4973012;28;20137;-71
2021/06/05 08:43:55;;;;;;;2.47;0.90;;;21.30;99.90;;;;;;4941304;28;20035;-70
2021/06/05 08:46:28;;;;;;;1.05;1.00;;;21.10;99.90;;;;;;4974053;28;20030;-70
2021/06/05 08:48:57;;;;;;;1.40;1.00;;;20.90;99.90;;;;;;4974580;28;20026;-72
2021/06/05 08:51:29;;;;;;;4.78;1.40;;;20.80;99.90;;;;;;4973055;28;20038;-72
2021/06/05 08:54:16;;;;;;;1.08;0.90;;;20.20;99.90;;;;;;4973462;28;20023;-70
2021/06/05 08:56:41;;;;;;;3.47;1.27;;;20.50;99.90;;;;;;4973682;28;20043;-72
2021/06/05 08:59:08;;;;;;;2.75;1.10;;;20.90;99.90;;;;;;4973826;28;20026;-73
2021/06/05 09:01:41;;;;;;;2.35;1.05;;;21.20;99.90;;;;;;4973978;28;20455;-71
2021/06/05 09:04:15;;;;;;;2.35;1.25;;;21.60;99.90;;;;;;4956808;28;20034;-73
2021/06/05 09:06:58;;;;;;;1.10;1.10;;;21.60;99.90;;;;;;4973255;28;20023;-71
2021/06/05 09:09:29;;;;;;;1.50;1.15;;;21.30;99.90;;;;;;4953983;28;20049;-73
2021/06/05 09:11:55;;;;;;;3.70;1.15;;;21.20;99.90;;;;;;4972030;28;20033;-71
2021/06/05 09:14:21;;;;;;;3.13;1.02;;;21.00;99.90;;;;;;4972929;28;20455;-70
2021/06/05 09:16:52;;;;;;;2.30;1.20;;;21.20;99.90;;;;;;4972836;28;20036;-72
2021/06/05 09:19:26;;;;;;;3.58;1.30;;;20.90;99.90;;;;;;4973672;28;20035;-71
2021/06/05 09:22:12;;;;;;;4.97;0.98;;;20.70;99.90;;;;;;4973641;28;20046;-72
2021/06/05 09:24:48;;;;;;;1.23;1.02;;;20.70;99.90;;;;;;4973645;28;20393;-72
2021/06/05 09:27:16;;;;;;;1.80;1.10;;;21.10;99.90;;;;;;4973721;28;20104;-72
2021/06/05 09:30:00;;;;;;;9.52;1.27;;;21.40;99.90;;;;;;4972450;28;20038;-74
2021/06/05 09:32:33;;;;;;;2.72;1.13;;;21.50;99.90;;;;;;4973805;28;20022;-72
2021/06/05 09:35:05;;;;;;;2.60;1.38;;;21.50;99.90;;;;;;4973463;28;20031;-73
2021/06/05 09:37:46;;;;;;;1.63;1.30;;;21.40;99.90;;;;;;4956216;28;20090;-73
2021/06/05 09:40:24;;;;;;;3.58;1.15;;;21.50;99.90;;;;;;4973828;28;20493;-73
2021/06/05 09:42:50;;;;;;;1.27;1.00;;;21.50;99.90;;;;;;4973314;28;20066;-72
2021/06/05 09:45:33;;;;;;;2.10;1.10;;;21.30;99.90;;;;;;4972536;28;20050;-73
2021/06/05 09:48:14;;;;;;;1.98;0.85;;;21.50;99.90;;;;;;4972568;28;20065;-72
2021/06/05 09:50:42;;;;;;;3.35;1.50;;;21.30;99.90;;;;;;4972081;28;20034;-73
2021/06/05 09:53:28;;;;;;;3.85;1.10;;;21.30;99.90;;;;;;4975348;28;20100;-73
2021/06/05 09:55:54;;;;;;;2.17;1.50;;;21.60;99.90;;;;;;4972791;28;20116;-70
2021/06/05 09:58:35;;;;;;;1.13;1.00;;;22.20;99.90;;;;;;4972804;28;20441;-71
2021/06/05 10:01:21;;;;;;;1.38;1.02;;;22.60;99.90;;;;;;4954234;28;20070;-72
2021/06/05 10:03:50;;;;;;;1.23;0.82;;;22.60;99.90;;;;;;4955489;28;20057;-71
2021/06/05 10:06:21;;;;;;;1.10;1.00;;;22.20;99.90;;;;;;4972834;28;20055;-72
2021/06/05 10:08:47;;;;;;;0.80;0.75;;;22.10;99.90;;;;;;4972788;28;20031;-71
2021/06/05 10:11:19;;;;;;;0.90;0.90;;;22.20;99.90;;;;;;4971575;28;20027;-72
2021/06/05 10:13:50;;;;;;;2.03;1.10;;;21.90;99.90;;;;;;4972814;28;20035;-71
2021/06/05 10:16:21;;;;;;;1.53;1.10;;;21.80;99.90;;;;;;4972601;28;20041;-72
2021/06/05 10:19:08;;;;;;;1.08;0.98;;;22.00;99.90;;;;;;4972276;28;20791;-72
2021/06/05 10:21:46;;;;;;;2.47;1.00;;;21.40;99.90;;;;;;4971847;28;20397;-73
2021/06/05 10:24:21;;;;;;;3.78;1.23;;;21.10;99.90;;;;;;4972792;28;20077;-71
2021/06/05 10:26:48;;;;;;;3.35;1.08;;;21.10;99.90;;;;;;4972137;28;20102;-72
2021/06/05 10:29:25;;;;;;;1.33;0.90;;;20.70;99.90;;;;;;4972917;28;20046;-72
2021/06/05 10:31:51;;;;;;;2.10;0.90;;;20.20;99.90;;;;;;4977332;28;20031;-72
2021/06/05 10:34:30;;;;;;;1.15;1.05;;;20.70;99.90;;;;;;4975409;28;20030;-72
2021/06/05 10:36:56;;;;;;;2.25;0.80;;;20.90;99.90;;;;;;4972481;28;20023;-72
2021/06/05 10:39:31;;;;;;;3.00;1.15;;;21.00;99.90;;;;;;4972881;28;20034;-73
2021/06/05 10:42:07;;;;;;;0.90;0.85;;;21.10;99.90;;;;;;4974279;28;20039;-71
2021/06/05 10:44:33;;;;;;;2.33;0.70;;;21.70;99.90;;;;;;4956582;28;20019;-71
2021/06/05 10:47:08;;;;;;;1.92;0.77;;;21.80;99.90;;;;;;4973365;28;20935;-72
2021/06/05 10:49:37;;;;;;;1.92;0.90;;;22.30;99.90;;;;;;4972647;28;20026;-70
2021/06/05 10:52:27;;;;;;;0.95;0.73;;;23.00;99.90;;;;;;4972866;28;20042;-74
2021/06/05 10:54:57;;;;;;;1.17;0.70;;;22.90;99.90;;;;;;4953936;29;20030;-70
2021/06/05 10:57:32;;;;;;;1.02;0.85;;;22.50;99.90;;;;;;4953453;29;20109;-70
2021/06/05 11:00:01;;;;;;;0.68;0.60;;;22.10;99.90;;;;;;4952385;29;20031;-71
2021/06/05 11:02:46;;;;;;;3.13;0.80;;;22.00;99.90;;;;;;4953029;28;20035;-70
2021/06/05 11:05:24;;;;;;;1.13;0.70;;;22.00;99.90;;;;;;4971732;28;20031;-72
2021/06/05 11:08:16;;;;;;;0.52;0.43;;;21.80;99.90;;;;;;4958413;28;20042;-72
2021/06/05 11:10:52;;;;;;;0.68;0.40;;;21.40;99.90;;;;;;4957700;28;20030;-72
2021/06/05 11:13:37;;;;;;;0.90;0.40;;;21.70;99.90;;;;;;4975733;28;20035;-72
2021/06/05 11:16:08;;;;;;;0.50;0.45;;;22.20;99.90;;;;;;4976243;28;20062;-73
2021/06/05 11:18:38;;;;;;;1.65;0.35;;;22.50;99.90;;;;;;4973665;28;20027;-73
2021/06/05 11:21:22;;;;;;;0.28;0.22;;;22.40;99.90;;;;;;4955463;28;20043;-71
2021/06/05 11:23:57;;;;;;;0.30;0.30;;;22.60;99.90;;;;;;4957793;28;20101;-73
2021/06/05 11:26:38;;;;;;;1.02;0.40;;;22.60;99.90;;;;;;4957964;28;20026;-71
2021/06/05 11:29:19;;;;;;;0.30;0.30;;;22.30;99.90;;;;;;4975987;28;20037;-74
2021/06/05 11:31:57;;;;;;;0.20;0.20;;;22.40;99.90;;;;;;4975233;28;20031;-71
2021/06/05 11:34:29;;;;;;;0.63;0.30;;;22.40;99.90;;;;;;4975680;28;20565;-71
2021/06/05 11:37:03;;;;;;;1.02;0.40;;;21.60;99.90;;;;;;4958750;28;20121;-73
2021/06/05 11:39:29;;;;;;;0.60;0.30;;;21.50;99.90;;;;;;4976080;28;20035;-72
2021/06/05 11:42:18;;;;;;;0.65;0.30;;;21.50;99.90;;;;;;4975217;28;20085;-69
2021/06/05 11:45:04;;;;;;;0.30;0.30;;;21.40;99.90;;;;;;4923266;28;20046;-71
2021/06/05 11:47:35;;;;;;;10.85;8.13;;;21.30;99.90;;;;;;4945943;29;20063;-75
2021/06/05 11:50:10;;;;;;;5.47;3.25;;;21.50;99.90;;;;;;4938684;29;20094;-73
2021/06/05 11:52:42;;;;;;;8.30;7.43;;;21.50;99.90;;;;;;4964691;28;20019;-75
2021/06/05 11:55:20;;;;;;;12.90;10.20;;;21.50;99.90;;;;;;4975225;28;20026;-73
2021/06/05 11:57:51;;;;;;;3.13;2.38;;;21.90;99.90;;;;;;4974516;28;20482;-72
2021/06/05 12:00:21;;;;;;;0.30;0.30;;;22.30;99.90;;;;;;4958444;28;20058;-73
2021/06/05 12:02:58;;;;;;;0.30;0.30;;;22.50;99.90;;;;;;4954374;29;20289;-73
2021/06/05 12:05:25;;;;;;;0.75;0.40;;;22.60;99.90;;;;;;4975184;28;20119;-70
2021/06/05 12:07:52;;;;;;;0.63;0.35;;;22.90;99.90;;;;;;4974205;28;20030;-71
2021/06/05 12:10:33;;;;;;;3.63;0.57;;;22.60;99.90;;;;;;4973857;28;20125;-71
2021/06/05 12:12:59;;;;;;;3.40;0.45;;;21.50;99.90;;;;;;4974589;28;20492;-70
2021/06/05 12:15:39;;;;;;;0.77;0.55;;;21.00;99.90;;;;;;4974462;28;20033;-72
2021/06/05 12:18:20;;;;;;;0.50;0.40;;;20.60;99.90;;;;;;4957201;28;20077;-74
2021/06/05 12:20:55;;;;;;;2.05;0.60;;;20.60;99.90;;;;;;4973788;28;20102;-72
2021/06/05 12:23:37;;;;;;;4.22;0.60;;;20.90;99.90;;;;;;4974696;28;20498;-74
2021/06/05 12:26:07;;;;;;;1.25;0.70;;;20.80;99.90;;;;;;4974278;28;20023;-73
2021/06/05 12:29:09;;;;;;;0.82;0.82;;;20.60;99.90;;;;;;4970567;28;20058;-72
2021/06/05 12:31:41;;;;;;;6.97;0.87;;;20.10;99.90;;;;;;4976192;28;20113;-72
2021/06/05 12:34:34;;;;;;;1.98;1.27;;;20.50;99.90;;;;;;4978210;28;20278;-71
2021/06/05 12:37:19;;;;;;;1.52;0.95;;;20.70;99.90;;;;;;4957126;28;20026;-71
2021/06/05 12:40:00;;;;;;;0.80;0.80;;;20.70;99.90;;;;;;4972921;28;20038;-71
2021/06/05 12:42:35;;;;;;;2.13;0.75;;;20.20;99.90;;;;;;4974294;28;20026;-72
2021/06/05 12:45:10;;;;;;;1.95;0.93;;;20.30;99.90;;;;;;4973641;28;20030;-72
2021/06/05 12:47:42;;;;;;;2.00;0.82;;;20.70;99.90;;;;;;4973934;28;20049;-72
2021/06/05 12:50:13;;;;;;;0.63;0.63;;;20.90;99.90;;;;;;4973492;28;20528;-71
2021/06/05 12:52:43;;;;;;;0.73;0.70;;;20.50;99.90;;;;;;4952704;29;20453;-72
2021/06/05 12:55:17;;;;;;;1.40;0.88;;;20.30;99.90;;;;;;4954424;29;20397;-72
2021/06/05 12:58:01;;;;;;;1.67;0.90;;;20.20;99.90;;;;;;4954587;29;20139;-70
2021/06/05 13:00:29;;;;;;;2.40;0.77;;;20.30;99.90;;;;;;4953451;28;20030;-72
2021/06/05 13:02:58;;;;;;;2.88;0.88;;;20.20;99.90;;;;;;4954096;29;20027;-71